Tin City, Alaska
Current Conditions -  °F | °C
As of 1:55 PM on Monday 24 Nov 2014 (Local Time) from PATC Reporting Station
Light Snow Light Snow  
Wind Chill: 11°   Ceiling: 800
Heat Index: 21°   Visibility: 10mi
Dew Point: 19°   Wind: 8mph
Humidity: 94%   Direction: 190°S
Pressure: 29.82"   Gusts: NA
Location:  65.56°N, 167.92°W
Report Text: PATC 242255Z AUTO 19007KT 10SM -SN OVC008 M06/M07 A2982 RMK AO2 SNB2109 SLP107 P0000 T10631071
Loading
Personal Weather Stations






























Interactive Weather Map New forecast layout! Learn more

10-Day Weather Forecast

Advertisements
Track Severe Weather on mobile